Aeroporto :
LOGIN :

Iscrizione | Disclaimer

   EN    FR    IT 

 










Sommario :    VFR   VFR Marginale   IFR   IFR Intensivo   IFR Molto Intensivo
Visibilità : 
Base nubi : 
>= 8 km
>= 3000ft
5 / 8 km
1000 / 3000 ft
1500m / 5 km
500 / 1000 ft
800 / 1500m
200 / 500 ft
< 800m
< 200 ft
Simboli :   Temporali  Nebbia  Neve Forte  Precipitazioni Forti  Vento > 20 kt
SIGMETs :   Varie  Temporali  Ghiacco  Turbolenza  Onda orograficha  Ceneri Vulcaniche






- Altitudine del aeroporto : 124 ft
- Codice IATA : AVN


LFMV - Avignon Caumont

ULTIMO METAR :
  • 222030Z AUTO 34003KT CAVOK 06/05 Q1033

METARs OBSOLETI :
  • 222000Z AUTO VRB01KT CAVOK 07/05 Q1033 NOSIG
  • 221930Z AUTO VRB02KT CAVOK 07/05 Q1033 NOSIG
  • 221900Z AUTO VRB01KT CAVOK 09/05 Q1033 NOSIG
  • 221830Z AUTO VRB02KT CAVOK 10/07 Q1033 NOSIG
  • 221800Z AUTO 19003KT CAVOK 10/06 Q1032 NOSIG

TAF TAF LFMV
Valido dal 22 a 15 ore il 23 a 15 ore UTC


221400Z 2215/2315 VRB03KT CAVOK
ATIS : +33 4 90 84 32 84



MetMap, La meteo Aeronautica in un colpo d'occhio ! - Copyright ORBIFLY Dicembre 2007 - Disclaimer

ORBIFLY MET'MAP TEAM :

Programmazione e sviluppo : Alexandra Zaïnal
Concezione : Baudouin d'Aumeries
Aiuto per la programmazione : Marc-Olivier Méhu
Supporto tecnico e logistico : Manuel Goepfert
Aiuto per la traduzione : Arnaldo La Scala

Contatto : metmap@orbifly.com




FONTI E CREDITI :

   NOAA